createdAt,value
2022-10-26T00:59:20.949Z,8.20
2022-10-26T01:01:49.389Z,8.10
2022-10-26T01:04:22.951Z,8.10
2022-10-26T01:06:52.004Z,8.10
2022-10-26T01:09:20.492Z,8.20
2022-10-26T01:17:24.217Z,8.20
2022-10-26T01:20:28.024Z,8.30
2022-10-26T01:32:42.989Z,7.90
2022-10-26T01:35:33.617Z,7.90
2022-10-26T01:56:46.080Z,7.80
2022-10-26T01:59:54.417Z,7.70
2022-10-26T02:02:45.237Z,7.80
2022-10-26T02:05:30.992Z,7.80
2022-10-26T02:08:18.733Z,7.60
2022-10-26T02:10:51.808Z,7.60
2022-10-26T02:13:28.898Z,7.50
2022-10-26T02:16:04.556Z,7.60
2022-10-26T02:23:39.160Z,7.70
2022-10-26T02:26:09.817Z,7.50
2022-10-26T02:28:45.345Z,7.40
2022-10-26T02:31:14.441Z,7.40
2022-10-26T02:38:09.945Z,7.40
2022-10-26T02:40:38.083Z,7.40
2022-10-26T02:52:14.294Z,7.30
2022-10-26T02:54:54.475Z,7.40
2022-10-26T03:01:44.234Z,7.30
2022-10-26T03:04:11.440Z,7.20
2022-10-26T03:16:25.950Z,7.10
2022-10-26T03:18:53.002Z,7.20
2022-10-26T03:21:20.058Z,7.10
2022-10-26T03:36:48.485Z,7.00
2022-10-26T03:39:15.682Z,6.90
2022-10-26T03:41:42.780Z,7.00
2022-10-26T03:52:52.788Z,7.00
2022-10-26T03:55:19.993Z,6.90
2022-10-26T03:57:47.188Z,6.80
2022-10-26T04:00:16.663Z,6.90
2022-10-26T04:02:47.188Z,6.80
2022-10-26T04:32:03.958Z,6.90
2022-10-26T04:34:31.142Z,6.70
2022-10-26T04:41:00.469Z,6.70
2022-10-26T04:43:29.477Z,6.70
2022-10-26T04:45:57.184Z,6.70
2022-10-26T04:56:14.905Z,6.90
2022-10-26T04:58:41.999Z,6.80
2022-10-26T05:01:09.131Z,6.80
2022-10-26T05:04:16.307Z,6.80
2022-10-26T05:06:43.526Z,6.70
2022-10-26T05:09:10.743Z,6.60
2022-10-26T05:20:39.261Z,6.40
2022-10-26T05:23:10.613Z,6.50
2022-10-26T05:28:44.217Z,6.70
2022-10-26T05:31:11.321Z,6.60
2022-10-26T05:38:58.914Z,6.50
2022-10-26T05:41:26.167Z,6.40
2022-10-26T05:43:53.223Z,6.50
2022-10-26T05:46:37.492Z,6.50
2022-10-26T05:49:04.635Z,6.50
2022-10-26T05:51:34.296Z,6.50
2022-10-26T05:59:33.876Z,6.50
2022-10-26T06:02:33.432Z,6.50
2022-10-26T06:23:45.982Z,6.70
2022-10-26T06:26:42.362Z,6.80
2022-10-26T06:37:55.555Z,6.80
2022-10-26T06:40:24.068Z,7.00
2022-10-26T06:42:51.390Z,7.00
2022-10-26T06:45:20.755Z,7.10
2022-10-26T06:48:13.145Z,7.10
2022-10-26T06:59:51.772Z,7.50
2022-10-26T07:02:19.663Z,7.60
2022-10-26T07:04:46.906Z,7.70
2022-10-26T07:07:29.317Z,7.70
2022-10-26T07:33:04.447Z,8.40
2022-10-26T07:35:35.769Z,8.70
2022-10-26T07:39:10.717Z,8.60
2022-10-26T07:41:37.906Z,8.70
2022-10-26T07:44:05.609Z,8.80
2022-10-26T07:46:32.822Z,8.90
2022-10-26T07:48:59.874Z,8.90
2022-10-26T07:51:33.468Z,9.00
2022-10-26T07:54:00.694Z,9.10
2022-10-26T07:56:28.868Z,9.10
2022-10-26T08:00:01.545Z,9.20
2022-10-26T08:02:32.043Z,9.20
2022-10-26T08:04:59.220Z,9.30
2022-10-26T08:07:44.697Z,9.40
2022-10-26T08:10:12.489Z,9.40
2022-10-26T08:21:36.143Z,9.60
2022-10-26T08:24:06.855Z,9.70
2022-10-26T08:27:15.104Z,9.80
2022-10-26T08:29:42.642Z,9.90
2022-10-26T08:32:09.934Z,10.00
2022-10-26T08:34:38.573Z,10.00
2022-10-26T08:37:05.687Z,10.10
2022-10-26T08:39:32.942Z,10.10
2022-10-26T08:42:15.635Z,10.20
2022-10-26T08:44:47.195Z,10.30
2022-10-26T08:51:19.835Z,10.50
2022-10-26T08:55:02.711Z,10.60
2022-10-26T08:57:38.895Z,10.70
2022-10-26T09:00:24.949Z,10.80
2022-10-26T09:02:53.451Z,10.90
2022-10-26T09:10:08.514Z,11.10
2022-10-26T09:12:59.868Z,11.20
2022-10-26T09:24:32.092Z,11.50
2022-10-26T09:27:27.234Z,11.60
2022-10-26T09:29:59.970Z,11.70
2022-10-26T09:32:35.065Z,11.70
2022-10-26T09:35:13.981Z,11.90
2022-10-26T09:37:48.066Z,12.00
2022-10-26T09:40:24.359Z,12.00
2022-10-26T09:43:20.992Z,12.00
2022-10-26T09:46:07.577Z,12.10
2022-10-26T09:48:50.181Z,12.20
2022-10-26T09:55:42.124Z,12.40
2022-10-26T09:58:25.538Z,12.40
2022-10-26T10:01:36.823Z,12.50
2022-10-26T10:04:26.427Z,12.60
2022-10-26T10:07:25.885Z,12.70
2022-10-26T10:10:19.906Z,12.80
2022-10-26T10:17:21.615Z,12.90
2022-10-26T10:19:49.458Z,13.10
2022-10-26T10:26:57.511Z,13.00
2022-10-26T10:29:30.249Z,13.10
2022-10-26T10:32:40.569Z,13.20
2022-10-26T10:35:25.675Z,13.30
2022-10-26T10:37:59.683Z,13.30
2022-10-26T10:40:30.927Z,13.40
2022-10-26T10:43:13.546Z,13.40
2022-10-26T10:45:41.382Z,13.60
2022-10-26T10:48:13.677Z,13.60
2022-10-26T10:51:00.953Z,13.50
2022-10-26T10:53:49.382Z,13.60
2022-10-26T10:56:41.832Z,13.70
2022-10-26T10:59:48.182Z,13.80
2022-10-26T11:02:46.552Z,14.00
2022-10-26T11:05:39.560Z,13.90
2022-10-26T11:08:29.794Z,14.10
2022-10-26T11:11:05.299Z,14.20
2022-10-26T11:13:39.164Z,14.10
2022-10-26T11:16:16.725Z,14.20
2022-10-26T11:18:50.617Z,14.20
2022-10-26T11:21:26.271Z,14.30
2022-10-26T11:24:00.471Z,14.30
2022-10-26T11:26:43.615Z,14.30
2022-10-26T11:29:35.031Z,14.40
2022-10-26T11:32:22.497Z,14.30
2022-10-26T11:35:11.685Z,14.40
2022-10-26T11:41:47.477Z,14.70
2022-10-26T11:45:38.647Z,14.70
2022-10-26T11:48:28.602Z,14.60
2022-10-26T11:51:30.196Z,14.70
2022-10-26T11:54:07.718Z,14.70
2022-10-26T11:56:49.812Z,14.70
2022-10-26T11:59:23.012Z,14.70
2022-10-26T12:05:57.586Z,14.80
2022-10-26T12:08:42.059Z,14.80
2022-10-26T12:11:27.776Z,14.80
2022-10-26T12:14:00.494Z,14.80
2022-10-26T12:16:42.706Z,14.90
2022-10-26T12:19:23.247Z,14.90
2022-10-26T12:21:51.747Z,14.90
2022-10-26T12:24:36.947Z,14.90
2022-10-26T12:27:06.232Z,15.10
2022-10-26T12:29:43.032Z,15.00
2022-10-26T12:32:28.960Z,15.10
2022-10-26T12:36:02.683Z,15.10
2022-10-26T12:38:33.787Z,15.20
2022-10-26T12:41:23.311Z,15.20
2022-10-26T12:43:50.702Z,15.20
2022-10-26T13:00:05.403Z,14.90
2022-10-26T13:03:10.388Z,14.90
2022-10-26T13:09:45.089Z,14.90
2022-10-26T13:12:39.603Z,14.80
2022-10-26T13:15:27.520Z,14.80
2022-10-26T13:18:09.524Z,14.70
2022-10-26T13:20:52.179Z,14.70
2022-10-26T13:23:27.632Z,14.90
2022-10-26T13:26:17.416Z,14.90
2022-10-26T13:28:47.822Z,14.80
2022-10-26T13:31:37.597Z,14.70
2022-10-26T13:36:51.832Z,14.60
2022-10-26T13:39:27.659Z,14.60
2022-10-26T13:41:56.712Z,14.50
2022-10-26T13:45:26.708Z,14.50
2022-10-26T13:48:14.998Z,14.50
2022-10-26T13:50:55.242Z,14.60
2022-10-26T13:53:58.197Z,14.50
2022-10-26T13:56:34.137Z,14.40
2022-10-26T13:59:13.694Z,14.40
2022-10-26T14:02:07.684Z,14.30
2022-10-26T14:04:35.194Z,14.30
2022-10-26T14:12:37.693Z,14.20
2022-10-26T14:15:09.550Z,14.10
2022-10-26T14:20:52.555Z,14.00
2022-10-26T14:23:27.518Z,13.90
2022-10-26T14:27:01.572Z,13.90
2022-10-26T14:29:33.211Z,13.90
2022-10-26T14:32:01.520Z,13.80
2022-10-26T14:34:29.214Z,13.70
2022-10-26T14:37:02.059Z,13.70
2022-10-26T14:39:29.161Z,13.70
2022-10-26T14:41:57.405Z,13.60
2022-10-26T14:49:22.860Z,13.50
2022-10-26T14:51:56.798Z,13.40
2022-10-26T14:54:27.669Z,13.40
2022-10-26T14:56:57.068Z,13.30
2022-10-26T15:04:03.060Z,13.20
2022-10-26T15:06:38.441Z,13.20
2022-10-26T15:09:55.723Z,13.10
2022-10-26T15:12:33.865Z,13.00
2022-10-26T15:16:08.492Z,13.00
2022-10-26T15:18:39.521Z,13.00
2022-10-26T15:21:24.570Z,12.90
2022-10-26T15:23:54.961Z,12.80
2022-10-26T15:30:28.075Z,12.70
2022-10-26T15:33:22.303Z,12.80
2022-10-26T15:35:49.785Z,12.60
2022-10-26T15:38:17.065Z,12.60
2022-10-26T15:40:44.653Z,12.50
2022-10-26T15:43:12.642Z,12.50
2022-10-26T15:49:31.903Z,12.50
2022-10-26T15:51:59.378Z,12.30
2022-10-26T15:54:26.532Z,12.30
2022-10-26T15:56:53.736Z,12.20
2022-10-26T15:59:46.043Z,12.20
2022-10-26T16:02:17.519Z,12.10
2022-10-26T16:07:51.159Z,12.00
2022-10-26T16:10:22.689Z,12.00
2022-10-26T16:13:13.821Z,12.00
2022-10-26T16:15:41.658Z,11.90
2022-10-26T16:18:08.865Z,11.80
2022-10-26T16:21:44.093Z,11.80
2022-10-26T16:24:11.353Z,11.70
2022-10-26T16:26:38.455Z,11.70
2022-10-26T16:29:06.171Z,11.60
2022-10-26T16:31:47.231Z,11.60
2022-10-26T16:34:40.801Z,11.80
2022-10-26T16:37:10.892Z,11.50
2022-10-26T16:39:44.083Z,11.50
2022-10-26T16:42:11.356Z,11.40
2022-10-26T16:44:41.789Z,11.40
2022-10-26T16:48:00.432Z,11.50
2022-10-26T16:50:35.493Z,11.40
2022-10-26T16:54:16.640Z,11.30
2022-10-26T16:56:43.873Z,11.30
2022-10-26T16:59:11.454Z,11.30
2022-10-26T17:06:10.108Z,11.20
2022-10-26T17:08:38.210Z,11.10
2022-10-26T17:12:10.749Z,11.10
2022-10-26T17:14:38.697Z,11.10
2022-10-26T17:25:38.543Z,10.90
2022-10-26T17:32:39.786Z,10.90
2022-10-26T17:35:07.646Z,10.80
2022-10-26T17:40:53.921Z,9.80
2022-10-26T17:43:21.747Z,10.80
2022-10-26T17:55:01.779Z,10.60
2022-10-26T17:57:33.200Z,10.60
2022-10-26T18:08:49.740Z,10.50
2022-10-26T18:25:25.394Z,10.50
2022-10-26T18:27:53.854Z,10.30
2022-10-26T18:30:22.207Z,10.20
2022-10-26T18:38:13.767Z,10.20
2022-10-26T18:40:41.120Z,10.70
2022-10-26T18:43:08.455Z,10.10
2022-10-26T18:49:42.429Z,10.10
2022-10-26T18:52:16.279Z,10.10
2022-10-26T18:54:43.484Z,10.10
2022-10-26T18:57:10.674Z,10.10
2022-10-26T19:04:07.031Z,10.00
2022-10-26T19:06:37.655Z,9.90
2022-10-26T19:27:39.687Z,9.80
2022-10-26T19:30:07.568Z,9.70
2022-10-26T19:32:36.618Z,9.70
2022-10-26T19:40:01.628Z,9.70
2022-10-26T19:42:28.830Z,9.70
2022-10-26T19:44:56.018Z,9.60
2022-10-26T19:51:48.510Z,9.60
2022-10-26T19:54:16.007Z,9.60
2022-10-26T19:56:43.327Z,9.60
2022-10-26T20:08:19.928Z,9.50
2022-10-26T20:10:47.338Z,9.40
2022-10-26T20:13:15.402Z,9.40
2022-10-26T20:30:18.382Z,9.30
2022-10-26T20:32:45.854Z,9.30
2022-10-26T20:35:13.040Z,9.30
2022-10-26T20:38:39.716Z,9.30
2022-10-26T20:41:12.265Z,9.20
2022-10-26T20:44:25.982Z,9.20
2022-10-26T20:46:54.557Z,9.20
2022-10-26T20:50:32.414Z,9.20
2022-10-26T20:53:02.576Z,9.20
2022-10-26T21:08:38.196Z,9.10
2022-10-26T21:11:06.024Z,9.10
2022-10-26T21:13:33.486Z,9.10
2022-10-26T21:20:28.038Z,9.00
2022-10-26T21:22:55.484Z,9.00
2022-10-26T21:25:22.815Z,9.00
2022-10-26T21:32:33.530Z,9.00
2022-10-26T21:35:00.909Z,9.00
2022-10-26T21:37:28.411Z,8.90
2022-10-26T21:54:12.617Z,8.80
2022-10-26T21:56:42.649Z,8.80
2022-10-26T21:59:09.819Z,8.80
2022-10-26T22:02:50.477Z,8.80
2022-10-26T22:05:20.277Z,8.80
2022-10-26T22:07:47.612Z,8.80
2022-10-26T22:10:15.083Z,8.80
2022-10-26T22:12:42.244Z,8.80
2022-10-26T22:32:47.988Z,8.70
2022-10-26T22:35:29.129Z,8.70
2022-10-26T22:38:24.547Z,8.70
2022-10-26T22:40:56.001Z,8.70
2022-10-26T22:56:32.180Z,8.80
2022-10-26T22:59:00.438Z,8.90
2022-10-26T23:05:09.074Z,8.90
2022-10-26T23:07:36.402Z,8.40
2022-10-26T23:10:04.895Z,8.90
2022-10-26T23:12:32.033Z,9.00
2022-10-26T23:23:41.970Z,9.10
2022-10-26T23:26:15.427Z,9.10
2022-10-26T23:29:39.366Z,9.20
2022-10-26T23:32:07.423Z,9.20
2022-10-26T23:34:34.584Z,9.20
2022-10-26T23:41:00.640Z,9.20
2022-10-26T23:43:28.558Z,9.30
2022-10-26T23:49:55.068Z,9.30
2022-10-26T23:52:22.264Z,9.30
